sensor_id;sensor_type;location;lat;lon;timestamp;pressure;altitude;pressure_sealevel;temperature;humidity
77706;BME280;66874;45.274;5.880;2023-03-01T00:01:07;99259.91;;;3.05;59.38
77706;BME280;66874;45.274;5.880;2023-03-01T00:03:33;99261.59;;;3.03;59.53
77706;BME280;66874;45.274;5.880;2023-03-01T00:05:59;99258.09;;;2.99;59.33
77706;BME280;66874;45.274;5.880;2023-03-01T00:08:25;99257.28;;;3.00;59.32
77706;BME280;66874;45.274;5.880;2023-03-01T00:11:21;99255.50;;;2.99;59.36
77706;BME280;66874;45.274;5.880;2023-03-01T00:13:48;99258.94;;;2.98;59.32
77706;BME280;66874;45.274;5.880;2023-03-01T00:16:26;99257.19;;;2.96;59.49
77706;BME280;66874;45.274;5.880;2023-03-01T00:18:53;99260.66;;;2.96;59.62
77706;BME280;66874;45.274;5.880;2023-03-01T00:21:19;99252.00;;;2.94;59.19
77706;BME280;66874;45.274;5.880;2023-03-01T00:23:45;99245.16;;;2.96;59.50
77706;BME280;66874;45.274;5.880;2023-03-01T00:26:12;99249.47;;;2.99;59.53
77706;BME280;66874;45.274;5.880;2023-03-01T00:28:39;99252.91;;;2.99;59.34
77706;BME280;66874;45.274;5.880;2023-03-01T03:00:41;99110.19;;;2.53;60.77
77706;BME280;66874;45.274;5.880;2023-03-01T03:03:16;99099.06;;;2.54;60.84
77706;BME280;66874;45.274;5.880;2023-03-01T03:05:42;99099.88;;;2.53;61.01
77706;BME280;66874;45.274;5.880;2023-03-01T03:08:08;99101.63;;;2.54;60.90
77706;BME280;66874;45.274;5.880;2023-03-01T03:10:37;99102.50;;;2.55;60.94
77706;BME280;66874;45.274;5.880;2023-03-01T03:13:08;99105.09;;;2.56;60.98
77706;BME280;66874;45.274;5.880;2023-03-01T03:15:34;99106.81;;;2.57;60.98
77706;BME280;66874;45.274;5.880;2023-03-01T03:18:06;99103.38;;;2.57;60.84
77706;BME280;66874;45.274;5.880;2023-03-01T03:20:32;99109.38;;;2.54;61.03
77706;BME280;66874;45.274;5.880;2023-03-01T03:22:58;99106.81;;;2.56;61.00
77706;BME280;66874;45.274;5.880;2023-03-01T03:25:25;99102.47;;;2.53;61.15
77706;BME280;66874;45.274;5.880;2023-03-01T03:27:53;99105.03;;;2.53;61.16
77706;BME280;66874;45.274;5.880;2023-03-01T06:31:44;99046.44;;;2.46;62.34
77706;BME280;66874;45.274;5.880;2023-03-01T06:34:11;99047.31;;;2.48;62.52
77706;BME280;66874;45.274;5.880;2023-03-01T06:36:38;99051.72;;;2.54;62.58
77706;BME280;66874;45.274;5.880;2023-03-01T06:39:03;99050.84;;;2.55;62.35
77706;BME280;66874;45.274;5.880;2023-03-01T06:41:30;99050.00;;;2.56;62.35
77706;BME280;66874;45.274;5.880;2023-03-01T06:43:56;99056.88;;;2.55;62.42
77706;BME280;66874;45.274;5.880;2023-03-01T06:46:21;99051.72;;;2.57;62.39
77706;BME280;66874;45.274;5.880;2023-03-01T06:48:47;99049.13;;;2.55;62.40
77706;BME280;66874;45.274;5.880;2023-03-01T06:51:12;99049.13;;;2.55;62.46
77706;BME280;66874;45.274;5.880;2023-03-01T06:53:37;99062.91;;;2.56;62.46
77706;BME280;66874;45.274;5.880;2023-03-01T06:56:03;99055.16;;;2.54;62.39
77706;BME280;66874;45.274;5.880;2023-03-01T06:58:28;99059.47;;;2.57;62.50
77706;BME280;66874;45.274;5.880;2023-03-01T07:00:54;99060.34;;;2.57;62.41
77706;BME280;66874;45.274;5.880;2023-03-01T07:03:19;99058.66;;;2.58;62.49
77706;BME280;66874;45.274;5.880;2023-03-01T07:05:44;99057.78;;;2.59;62.59
77706;BME280;66874;45.274;5.880;2023-03-01T07:08:10;99062.06;;;2.57;62.48
77706;BME280;66874;45.274;5.880;2023-03-01T07:10:36;99056.97;;;2.61;62.57
77706;BME280;66874;45.274;5.880;2023-03-01T07:13:01;99055.22;;;2.60;62.53
77706;BME280;66874;45.274;5.880;2023-03-01T07:15:27;99057.78;;;2.59;62.38
77706;BME280;66874;45.274;5.880;2023-03-01T07:17:53;99056.03;;;2.56;62.83
77706;BME280;66874;45.274;5.880;2023-03-01T07:20:19;99058.59;;;2.56;62.35
77706;BME280;66874;45.274;5.880;2023-03-01T07:22:49;99056.88;;;2.57;62.40
77706;BME280;66874;45.274;5.880;2023-03-01T07:25:15;99051.72;;;2.57;62.32
77706;BME280;66874;45.274;5.880;2023-03-01T07:27:40;99061.19;;;2.56;62.34
77706;BME280;66874;45.274;5.880;2023-03-01T07:30:06;99045.69;;;2.56;62.23
77706;BME280;66874;45.274;5.880;2023-03-01T07:32:32;99050.03;;;2.59;62.25
77706;BME280;66874;45.274;5.880;2023-03-01T07:34:57;99050.91;;;2.61;62.20
77706;BME280;66874;45.274;5.880;2023-03-01T07:37:22;99060.41;;;2.62;62.44
77706;BME280;66874;45.274;5.880;2023-03-01T07:39:48;99057.84;;;2.63;62.13
77706;BME280;66874;45.274;5.880;2023-03-01T07:42:13;99058.69;;;2.64;62.28
77706;BME280;66874;45.274;5.880;2023-03-01T07:44:38;99063.06;;;2.66;62.27
77706;BME280;66874;45.274;5.880;2023-03-01T07:47:04;99053.63;;;2.72;62.21
77706;BME280;66874;45.274;5.880;2023-03-01T07:49:29;99054.53;;;2.75;62.07
77706;BME280;66874;45.274;5.880;2023-03-01T07:51:55;99049.38;;;2.75;62.36
77706;BME280;66874;45.274;5.880;2023-03-01T07:54:20;99050.28;;;2.79;62.12
77706;BME280;66874;45.274;5.880;2023-03-01T07:56:45;99054.63;;;2.81;61.91
77706;BME280;66874;45.274;5.880;2023-03-01T07:59:11;99047.78;;;2.86;61.94
77706;BME280;66874;45.274;5.880;2023-03-01T08:01:36;99051.25;;;2.90;62.03
77706;BME280;66874;45.274;5.880;2023-03-01T08:04:01;99056.44;;;2.88;61.88
77706;BME280;66874;45.274;5.880;2023-03-01T08:06:27;99054.72;;;2.92;61.67
77706;BME280;66874;45.274;5.880;2023-03-01T08:08:52;99047.88;;;2.94;61.72
77706;BME280;66874;45.274;5.880;2023-03-01T08:11:20;99045.31;;;2.97;61.81
77706;BME280;66874;45.274;5.880;2023-03-01T08:13:48;99046.19;;;2.98;61.71
77706;BME280;66874;45.274;5.880;2023-03-01T08:16:14;99049.63;;;2.97;61.89
77706;BME280;66874;45.274;5.880;2023-03-01T08:18:40;99048.75;;;2.96;61.78
77706;BME280;66874;45.274;5.880;2023-03-01T08:21:08;99050.53;;;3.02;61.75
77706;BME280;66874;45.274;5.880;2023-03-01T08:23:34;99044.53;;;3.06;61.66
77706;BME280;66874;45.274;5.880;2023-03-01T08:26:04;99044.56;;;3.07;61.83
77706;BME280;66874;45.274;5.880;2023-03-01T08:28:29;99054.88;;;3.07;61.84
77706;BME280;66874;45.274;5.880;2023-03-01T08:30:55;99048.00;;;3.06;61.54
77706;BME280;66874;45.274;5.880;2023-03-01T08:33:20;99038.53;;;3.07;61.69
77706;BME280;66874;45.274;5.880;2023-03-01T08:35:46;99048.03;;;3.09;61.62
77706;BME280;66874;45.274;5.880;2023-03-01T08:38:11;99041.13;;;3.10;61.48
77706;BME280;66874;45.274;5.880;2023-03-01T08:40:36;99040.31;;;3.12;61.54
77706;BME280;66874;45.274;5.880;2023-03-01T08:43:02;99038.63;;;3.16;61.54
77706;BME280;66874;45.274;5.880;2023-03-01T08:45:27;99039.53;;;3.23;61.48
77706;BME280;66874;45.274;5.880;2023-03-01T08:47:53;99037.88;;;3.29;61.36
77706;BME280;66874;45.274;5.880;2023-03-01T08:50:18;99036.22;;;3.36;61.12
77706;BME280;66874;45.274;5.880;2023-03-01T08:52:43;99038.84;;;3.39;61.00
77706;BME280;66874;45.274;5.880;2023-03-01T08:55:09;99038.00;;;3.38;61.08
77706;BME280;66874;45.274;5.880;2023-03-01T08:57:34;99041.44;;;3.42;60.98
77706;BME280;66874;45.274;5.880;2023-03-01T09:00:00;99041.50;;;3.47;60.96
77706;BME280;66874;45.274;5.880;2023-03-01T09:02:25;99045.06;;;3.58;61.01
77706;BME280;66874;45.274;5.880;2023-03-01T09:04:51;99038.22;;;3.67;60.85
77706;BME280;66874;45.274;5.880;2023-03-01T09:07:16;99040.88;;;3.74;60.69
77706;BME280;66874;45.274;5.880;2023-03-01T09:09:42;99041.75;;;3.77;60.65
77706;BME280;66874;45.274;5.880;2023-03-01T09:12:07;99034.84;;;3.78;60.66
77706;BME280;66874;45.274;5.880;2023-03-01T09:14:32;99029.75;;;3.85;60.60
77706;BME280;66874;45.274;5.880;2023-03-01T09:16:58;99035.78;;;3.84;60.42
77706;BME280;66874;45.274;5.880;2023-03-01T09:19:23;99035.75;;;3.83;60.44
77706;BME280;66874;45.274;5.880;2023-03-01T09:21:49;99034.00;;;3.79;60.34
77706;BME280;66874;45.274;5.880;2023-03-01T09:24:20;99026.22;;;3.77;60.36
77706;BME280;66874;45.274;5.880;2023-03-01T09:26:45;99031.38;;;3.74;60.15
77706;BME280;66874;45.274;5.880;2023-03-01T09:29:11;99030.50;;;3.75;60.15
77706;BME280;66874;45.274;5.880;2023-03-01T09:31:37;99028.81;;;3.77;60.36
77706;BME280;66874;45.274;5.880;2023-03-01T09:34:03;99033.16;;;3.83;60.08
77706;BME280;66874;45.274;5.880;2023-03-01T09:36:28;99032.31;;;3.85;60.18
77706;BME280;66874;45.274;5.880;2023-03-01T09:38:54;99034.06;;;3.85;60.23
77706;BME280;66874;45.274;5.880;2023-03-01T09:46:57;99029.78;;;3.95;59.83
77706;BME280;66874;45.274;5.880;2023-03-01T09:49:25;99025.47;;;3.95;59.84
77706;BME280;66874;45.274;5.880;2023-03-01T09:51:58;99034.09;;;3.92;59.76
77706;BME280;66874;45.274;5.880;2023-03-01T09:54:24;99021.16;;;3.96;59.87
77706;BME280;66874;45.274;5.880;2023-03-01T09:57:06;99024.69;;;4.04;59.74
77706;BME280;66874;45.274;5.880;2023-03-01T09:59:41;99022.16;;;4.14;59.70
77706;BME280;66874;45.274;5.880;2023-03-01T10:02:26;99012.69;;;4.23;59.38
77706;BME280;66874;45.274;5.880;2023-03-01T10:05:00;99010.16;;;4.29;59.26
77706;BME280;66874;45.274;5.880;2023-03-01T10:10:05;99010.22;;;4.39;59.21
77706;BME280;66874;45.274;5.880;2023-03-01T10:12:37;98998.97;;;4.40;59.03
77706;BME280;66874;45.274;5.880;2023-03-01T10:15:18;98999.91;;;4.50;58.99
77706;BME280;66874;45.274;5.880;2023-03-01T10:18:06;98993.88;;;4.60;58.93
77706;BME280;66874;45.274;5.880;2023-03-01T10:23:23;98996.50;;;4.67;58.47
77706;BME280;66874;45.274;5.880;2023-03-01T10:26:21;98991.31;;;4.63;58.59
77706;BME280;66874;45.274;5.880;2023-03-01T10:31:26;98986.97;;;4.61;58.37
77706;BME280;66874;45.274;5.880;2023-03-01T10:33:54;98982.66;;;4.64;58.32
77706;BME280;66874;45.274;5.880;2023-03-01T10:36:22;98987.00;;;4.70;58.23
77706;BME280;66874;45.274;5.880;2023-03-01T10:38:54;98979.25;;;4.76;58.24
77706;BME280;66874;45.274;5.880;2023-03-01T10:41:21;98977.53;;;4.83;57.86
77706;BME280;66874;45.274;5.880;2023-03-01T10:44:00;98974.09;;;4.88;57.97
77706;BME280;66874;45.274;5.880;2023-03-01T10:46:34;98978.44;;;4.94;57.90
77706;BME280;66874;45.274;5.880;2023-03-01T10:49:20;98975.84;;;5.02;57.50
77706;BME280;66874;45.274;5.880;2023-03-01T10:51:51;98969.81;;;5.07;57.52
77706;BME280;66874;45.274;5.880;2023-03-01T10:54:30;98971.56;;;5.11;57.55
77706;BME280;66874;45.274;5.880;2023-03-01T10:57:05;98970.69;;;5.22;57.31
77706;BME280;66874;45.274;5.880;2023-03-01T10:59:36;98968.09;;;5.32;57.33
77706;BME280;66874;45.274;5.880;2023-03-01T11:02:30;98967.25;;;5.43;57.25
77706;BME280;66874;45.274;5.880;2023-03-01T11:05:00;98956.00;;;5.48;57.02
77706;BME280;66874;45.274;5.880;2023-03-01T11:07:25;98960.31;;;5.57;57.03
77706;BME280;66874;45.274;5.880;2023-03-01T11:09:51;98953.38;;;5.67;56.72
77706;BME280;66874;45.274;5.880;2023-03-01T11:12:17;98955.97;;;5.76;56.86
77706;BME280;66874;45.274;5.880;2023-03-01T11:14:51;98946.41;;;5.90;56.46
77706;BME280;66874;45.274;5.880;2023-03-01T11:17:25;98942.97;;;6.00;56.20
77706;BME280;66874;45.274;5.880;2023-03-01T11:22:57;98937.72;;;6.16;55.50
77706;BME280;66874;45.274;5.880;2023-03-01T11:25:26;98935.06;;;6.26;55.61
77706;BME280;66874;45.274;5.880;2023-03-01T11:27:53;98927.19;;;6.45;55.59
77706;BME280;66874;45.274;5.880;2023-03-01T11:30:32;98925.41;;;6.56;55.12
77706;BME280;66874;45.274;5.880;2023-03-01T11:35:45;98914.91;;;6.76;54.53
77706;BME280;66874;45.274;5.880;2023-03-01T11:54:30;98882.34;;;8.20;52.17
77706;BME280;66874;45.274;5.880;2023-03-01T11:57:05;98867.34;;;8.37;52.06
77706;BME280;66874;45.274;5.880;2023-03-01T12:00:24;98874.03;;;8.58;51.51
77706;BME280;66874;45.274;5.880;2023-03-01T12:08:43;98855.00;;;9.09;50.37
77706;BME280;66874;45.274;5.880;2023-03-01T12:19:51;98852.47;;;9.04;50.06
77706;BME280;66874;45.274;5.880;2023-03-01T12:25:12;98836.72;;;9.09;50.07
77706;BME280;66874;45.274;5.880;2023-03-01T12:35:58;98828.94;;;9.07;49.66
77706;BME280;66874;45.274;5.880;2023-03-01T12:38:40;98829.72;;;9.12;49.43
77706;BME280;66874;45.274;5.880;2023-03-01T12:49:57;98816.69;;;8.58;49.57
77706;BME280;66874;45.274;5.880;2023-03-01T12:52:41;98815.59;;;8.73;49.42
77706;BME280;66874;45.274;5.880;2023-03-01T12:58:02;98806.00;;;10.13;48.33
77706;BME280;66874;45.274;5.880;2023-03-01T13:00:40;98803.03;;;9.89;48.00
77706;BME280;66874;45.274;5.880;2023-03-01T13:11:03;98782.50;;;10.51;46.33
77706;BME280;66874;45.274;5.880;2023-03-01T13:13:30;98785.16;;;10.50;46.92
77706;BME280;66874;45.274;5.880;2023-03-01T13:15:56;98781.13;;;11.07;46.43
77706;BME280;66874;45.274;5.880;2023-03-01T13:20:55;98767.56;;;11.27;45.77
77706;BME280;66874;45.274;5.880;2023-03-01T13:34:00;98738.50;;;14.70;42.41
77706;BME280;66874;45.274;5.880;2023-03-01T13:46:38;98710.75;;;16.93;38.89
77706;BME280;66874;45.274;5.880;2023-03-01T13:49:03;98701.97;;;16.75;37.39
77706;BME280;66874;45.274;5.880;2023-03-01T13:51:29;98706.63;;;16.87;37.43
77706;BME280;66874;45.274;5.880;2023-03-01T13:53:56;98714.22;;;17.28;36.84
77706;BME280;66874;45.274;5.880;2023-03-01T13:56:28;98709.56;;;17.66;36.40
77706;BME280;66874;45.274;5.880;2023-03-01T13:59:01;98714.53;;;17.72;35.62
77706;BME280;66874;45.274;5.880;2023-03-01T14:01:30;98713.47;;;17.08;35.68
77706;BME280;66874;45.274;5.880;2023-03-01T14:03:56;98722.94;;;16.78;35.95
77706;BME280;66874;45.274;5.880;2023-03-01T14:06:31;98710.59;;;16.42;35.86
77706;BME280;66874;45.274;5.880;2023-03-01T14:09:10;98714.41;;;16.18;36.21
77706;BME280;66874;45.274;5.880;2023-03-01T14:20:03;98710.19;;;15.36;36.49
77706;BME280;66874;45.274;5.880;2023-03-01T14:22:34;98709.38;;;14.95;36.77
77706;BME280;66874;45.274;5.880;2023-03-01T14:25:06;98712.25;;;14.89;36.72
77706;BME280;66874;45.274;5.880;2023-03-01T14:27:41;98717.56;;;14.67;36.96
77706;BME280;66874;45.274;5.880;2023-03-01T14:30:15;98717.72;;;14.40;37.16
77706;BME280;66874;45.274;5.880;2023-03-01T14:32:52;98715.25;;;14.14;37.51
77706;BME280;66874;45.274;5.880;2023-03-01T14:35:51;98714.91;;;14.23;37.72
77706;BME280;66874;45.274;5.880;2023-03-01T14:38:28;98716.00;;;14.39;37.78
77706;BME280;66874;45.274;5.880;2023-03-01T14:40:58;98714.53;;;14.10;37.66
77706;BME280;66874;45.274;5.880;2023-03-01T14:43:24;98715.56;;;14.06;37.86
77706;BME280;66874;45.274;5.880;2023-03-01T14:45:53;98718.56;;;14.41;38.01
77706;BME280;66874;45.274;5.880;2023-03-01T14:48:19;98703.38;;;14.49;37.69
77706;BME280;66874;45.274;5.880;2023-03-01T14:50:45;98706.72;;;14.53;37.56
77706;BME280;66874;45.274;5.880;2023-03-01T14:53:18;98707.50;;;14.33;37.18
77706;BME280;66874;45.274;5.880;2023-03-01T14:55:46;98714.53;;;14.10;37.50
77706;BME280;66874;45.274;5.880;2023-03-01T14:58:15;98709.56;;;14.03;37.47
77706;BME280;66874;45.274;5.880;2023-03-01T15:00:49;98720.56;;;13.90;37.41
77706;BME280;66874;45.274;5.880;2023-03-01T15:03:39;98722.81;;;13.54;37.69
77706;BME280;66874;45.274;5.880;2023-03-01T15:06:07;98723.56;;;13.58;37.83
77706;BME280;66874;45.274;5.880;2023-03-01T15:08:35;98734.91;;;13.58;37.81
77706;BME280;66874;45.274;5.880;2023-03-01T15:11:21;98734.06;;;13.58;37.73
77706;BME280;66874;45.274;5.880;2023-03-01T15:13:49;98742.25;;;13.74;37.95
77706;BME280;66874;45.274;5.880;2023-03-01T15:16:17;98732.97;;;13.87;37.91
77706;BME280;66874;45.274;5.880;2023-03-01T15:19:05;98722.41;;;13.41;37.68
77706;BME280;66874;45.274;5.880;2023-03-01T15:21:38;98732.53;;;13.27;38.16
77706;BME280;66874;45.274;5.880;2023-03-01T15:26:44;98730.59;;;13.32;37.79
77706;BME280;66874;45.274;5.880;2023-03-01T15:29:17;98717.22;;;13.13;38.06
77706;BME280;66874;45.274;5.880;2023-03-01T15:31:54;98719.31;;;13.04;38.46
77706;BME280;66874;45.274;5.880;2023-03-01T15:34:34;98725.06;;;13.15;38.33
77706;BME280;66874;45.274;5.880;2023-03-01T15:37:03;98719.69;;;13.18;38.23
77706;BME280;66874;45.274;5.880;2023-03-01T15:44:46;98714.03;;;12.52;38.64
77706;BME280;66874;45.274;5.880;2023-03-01T15:47:24;98716.28;;;12.38;38.87
77706;BME280;66874;45.274;5.880;2023-03-01T15:49:52;98723.06;;;12.43;38.96
77706;BME280;66874;45.274;5.880;2023-03-01T15:52:25;98719.84;;;12.07;39.22
77706;BME280;66874;45.274;5.880;2023-03-01T15:54:56;98723.81;;;11.61;39.70
77706;BME280;66874;45.274;5.880;2023-03-01T15:57:21;98720.25;;;11.33;40.14
77706;BME280;66874;45.274;5.880;2023-03-01T15:59:46;98726.03;;;11.13;40.61
77706;BME280;66874;45.274;5.880;2023-03-01T16:02:12;98735.84;;;11.05;40.63
77706;BME280;66874;45.274;5.880;2023-03-01T16:04:39;98721.91;;;11.03;41.04
77706;BME280;66874;45.274;5.880;2023-03-01T16:07:05;98729.69;;;11.06;40.85
77706;BME280;66874;45.274;5.880;2023-03-01T16:09:31;98730.09;;;10.90;40.92
77706;BME280;66874;45.274;5.880;2023-03-01T16:11:56;98731.25;;;10.80;41.05
77706;BME280;66874;45.274;5.880;2023-03-01T16:14:22;98733.53;;;10.58;41.30
77706;BME280;66874;45.274;5.880;2023-03-01T16:16:47;98742.03;;;10.31;41.63
77706;BME280;66874;45.274;5.880;2023-03-01T16:19:14;98737.81;;;10.22;42.05
77706;BME280;66874;45.274;5.880;2023-03-01T16:21:41;98744.03;;;10.18;42.10
77706;BME280;66874;45.274;5.880;2023-03-01T16:24:08;98741.50;;;9.74;42.15
77706;BME280;66874;45.274;5.880;2023-03-01T16:26:33;98745.94;;;9.27;42.59
77706;BME280;66874;45.274;5.880;2023-03-01T16:28:59;98755.88;;;9.07;43.17
77706;BME280;66874;45.274;5.880;2023-03-01T16:31:25;98747.75;;;8.74;43.47
77706;BME280;66874;45.274;5.880;2023-03-01T16:33:55;98749.88;;;8.51;43.79
77706;BME280;66874;45.274;5.880;2023-03-01T16:36:21;98748.31;;;8.36;44.30
77706;BME280;66874;45.274;5.880;2023-03-01T16:38:49;98756.25;;;8.28;44.53
77706;BME280;66874;45.274;5.880;2023-03-01T16:41:17;98752.97;;;8.16;44.67
77706;BME280;66874;45.274;5.880;2023-03-01T16:43:43;98753.94;;;8.07;44.90
77706;BME280;66874;45.274;5.880;2023-03-01T16:46:13;98755.69;;;8.08;45.08
77706;BME280;66874;45.274;5.880;2023-03-01T16:48:40;98758.38;;;8.02;44.84
77706;BME280;66874;45.274;5.880;2023-03-01T16:51:05;98756.63;;;8.02;45.30
77706;BME280;66874;45.274;5.880;2023-03-01T16:53:33;98763.75;;;7.90;45.50
77706;BME280;66874;45.274;5.880;2023-03-01T16:55:59;98770.81;;;7.81;45.54
77706;BME280;66874;45.274;5.880;2023-03-01T16:58:24;98769.25;;;7.67;45.88
77706;BME280;66874;45.274;5.880;2023-03-01T17:00:53;98771.88;;;7.65;45.82
77706;BME280;66874;45.274;5.880;2023-03-01T17:03:24;98778.00;;;7.61;46.20
77706;BME280;66874;45.274;5.880;2023-03-01T17:05:51;98777.31;;;7.47;46.20
77706;BME280;66874;45.274;5.880;2023-03-01T17:08:16;98776.63;;;7.28;46.47
77706;BME280;66874;45.274;5.880;2023-03-01T17:10:42;98785.44;;;7.13;46.79
77706;BME280;66874;45.274;5.880;2023-03-01T17:13:08;98786.41;;;7.03;46.83
77706;BME280;66874;45.274;5.880;2023-03-01T17:15:34;98787.44;;;6.83;47.13
77706;BME280;66874;45.274;5.880;2023-03-01T17:18:00;98794.44;;;6.75;47.50
77706;BME280;66874;45.274;5.880;2023-03-01T17:20:26;98798.06;;;6.59;47.63
77706;BME280;66874;45.274;5.880;2023-03-01T17:22:51;98806.00;;;6.39;47.92
77706;BME280;66874;45.274;5.880;2023-03-01T17:25:17;98799.13;;;6.29;47.99
77706;BME280;66874;45.274;5.880;2023-03-01T17:27:43;98811.25;;;6.25;48.18
77706;BME280;66874;45.274;5.880;2023-03-01T17:30:10;98816.47;;;6.24;48.27
77706;BME280;66874;45.274;5.880;2023-03-01T17:32:36;98813.88;;;6.22;48.33
77706;BME280;66874;45.274;5.880;2023-03-01T17:35:01;98816.56;;;6.08;48.33
77706;BME280;66874;45.274;5.880;2023-03-01T17:37:27;98816.59;;;5.99;48.45
77706;BME280;66874;45.274;5.880;2023-03-01T17:39:52;98824.38;;;5.92;48.50
77706;BME280;66874;45.274;5.880;2023-03-01T17:42:17;98824.38;;;5.92;48.64
77706;BME280;66874;45.274;5.880;2023-03-01T17:44:43;98826.13;;;5.90;48.95
77706;BME280;66874;45.274;5.880;2023-03-01T17:47:08;98831.34;;;5.90;49.01
77706;BME280;66874;45.274;5.880;2023-03-01T17:49:35;98834.81;;;5.85;49.11
77706;BME280;66874;45.274;5.880;2023-03-01T17:52:00;98841.75;;;5.82;49.25
77706;BME280;66874;45.274;5.880;2023-03-01T17:54:26;98840.94;;;5.69;49.37
77706;BME280;66874;45.274;5.880;2023-03-01T17:56:52;98840.06;;;5.64;49.64
77706;BME280;66874;45.274;5.880;2023-03-01T17:59:17;98847.03;;;5.51;49.76
77706;BME280;66874;45.274;5.880;2023-03-01T18:01:43;98847.06;;;5.42;50.08
77706;BME280;66874;45.274;5.880;2023-03-01T18:04:08;98856.53;;;5.45;50.08
77706;BME280;66874;45.274;5.880;2023-03-01T18:06:34;98854.81;;;5.45;50.29
77706;BME280;66874;45.274;5.880;2023-03-01T18:09:00;98854.81;;;5.41;50.28
77706;BME280;66874;45.274;5.880;2023-03-01T18:11:26;98859.16;;;5.35;50.47
77706;BME280;66874;45.274;5.880;2023-03-01T18:13:53;98861.75;;;5.29;50.54
77706;BME280;66874;45.274;5.880;2023-03-01T18:16:19;98870.44;;;5.27;50.90
77706;BME280;66874;45.274;5.880;2023-03-01T18:18:46;98874.72;;;5.11;51.38
77706;BME280;66874;45.274;5.880;2023-03-01T18:21:13;98876.47;;;4.98;51.46
77706;BME280;66874;45.274;5.880;2023-03-01T18:23:39;98876.47;;;4.81;51.73
77706;BME280;66874;45.274;5.880;2023-03-01T18:26:08;98875.56;;;4.69;52.20
77706;BME280;66874;45.274;5.880;2023-03-01T18:28:34;98876.44;;;4.63;52.55
77706;BME280;66874;45.274;5.880;2023-03-01T18:31:03;98876.41;;;4.52;52.62
77706;BME280;66874;45.274;5.880;2023-03-01T18:33:30;98873.81;;;4.48;52.81
77706;BME280;66874;45.274;5.880;2023-03-01T18:35:55;98873.84;;;4.46;52.91
77706;BME280;66874;45.274;5.880;2023-03-01T18:38:21;98872.09;;;4.45;53.03
77706;BME280;66874;45.274;5.880;2023-03-01T18:40:46;98879.00;;;4.46;53.58
77706;BME280;66874;45.274;5.880;2023-03-01T18:43:12;98887.63;;;4.44;53.43
77706;BME280;66874;45.274;5.880;2023-03-01T18:45:37;98885.91;;;4.43;53.63
77706;BME280;66874;45.274;5.880;2023-03-01T18:48:03;98880.72;;;4.46;53.22
77706;BME280;66874;45.274;5.880;2023-03-01T18:50:29;98885.91;;;4.53;53.07
77706;BME280;66874;45.274;5.880;2023-03-01T18:52:54;98880.75;;;4.52;53.48
77706;BME280;66874;45.274;5.880;2023-03-01T18:55:20;98884.19;;;4.46;53.31
77706;BME280;66874;45.274;5.880;2023-03-01T18:57:45;98881.56;;;4.41;53.62
77706;BME280;66874;45.274;5.880;2023-03-01T19:00:11;98880.72;;;4.39;53.63
77706;BME280;66874;45.274;5.880;2023-03-01T19:02:37;98880.69;;;4.36;53.94
77706;BME280;66874;45.274;5.880;2023-03-01T19:05:03;98884.13;;;4.29;54.22
77706;BME280;66874;45.274;5.880;2023-03-01T19:07:28;98879.81;;;4.24;54.31
77706;BME280;66874;45.274;5.880;2023-03-01T19:09:54;98876.34;;;4.23;54.25
77706;BME280;66874;45.274;5.880;2023-03-01T19:12:19;98879.78;;;4.22;54.27
77706;BME280;66874;45.274;5.880;2023-03-01T19:14:44;98885.84;;;4.24;54.10
77706;BME280;66874;45.274;5.880;2023-03-01T19:17:10;98887.56;;;4.21;54.40
77706;BME280;66874;45.274;5.880;2023-03-01T19:19:35;98889.28;;;4.15;54.46
77706;BME280;66874;45.274;5.880;2023-03-01T19:22:01;98892.72;;;4.18;54.13
77706;BME280;66874;45.274;5.880;2023-03-01T19:24:26;98888.44;;;4.26;54.30
77706;BME280;66874;45.274;5.880;2023-03-01T19:26:55;98889.31;;;4.28;54.11
77706;BME280;66874;45.274;5.880;2023-03-01T19:29:21;98894.50;;;4.28;54.29
77706;BME280;66874;45.274;5.880;2023-03-01T19:31:46;98885.81;;;4.18;54.96
77706;BME280;66874;45.274;5.880;2023-03-01T19:34:12;98882.34;;;4.10;55.09
77706;BME280;66874;45.274;5.880;2023-03-01T19:36:39;98884.91;;;4.01;55.21
77706;BME280;66874;45.274;5.880;2023-03-01T19:39:05;98886.59;;;3.99;55.15
77706;BME280;66874;45.274;5.880;2023-03-01T19:41:31;98884.88;;;3.98;55.29
77706;BME280;66874;45.274;5.880;2023-03-01T19:43:57;98874.53;;;3.98;55.10
77706;BME280;66874;45.274;5.880;2023-03-01T19:46:23;98876.22;;;3.96;55.28
77706;BME280;66874;45.274;5.880;2023-03-01T19:48:51;98880.56;;;4.00;55.37
77706;BME280;66874;45.274;5.880;2023-03-01T19:51:17;98874.53;;;3.98;55.12
77706;BME280;66874;45.274;5.880;2023-03-01T19:53:42;98881.44;;;3.97;55.24
77706;BME280;66874;45.274;5.880;2023-03-01T19:56:08;98886.59;;;3.99;55.28
77706;BME280;66874;45.274;5.880;2023-03-01T19:58:34;98886.63;;;4.00;55.33
77706;BME280;66874;45.274;5.880;2023-03-01T20:00:59;98887.47;;;3.99;55.39
77706;BME280;66874;45.274;5.880;2023-03-01T20:03:27;98883.16;;;3.98;55.48
77706;BME280;66874;45.274;5.880;2023-03-01T20:05:52;98881.44;;;3.97;55.44
77706;BME280;66874;45.274;5.880;2023-03-01T20:08:18;98883.16;;;3.97;55.48
77706;BME280;66874;45.274;5.880;2023-03-01T20:10:43;98879.69;;;3.99;55.36
77706;BME280;66874;45.274;5.880;2023-03-01T20:13:08;98883.16;;;4.00;55.42
77706;BME280;66874;45.274;5.880;2023-03-01T20:15:34;98889.19;;;3.99;55.35
77706;BME280;66874;45.274;5.880;2023-03-01T20:17:59;98881.44;;;4.02;55.27
77706;BME280;66874;45.274;5.880;2023-03-01T20:20:24;98878.88;;;4.06;55.11
77706;BME280;66874;45.274;5.880;2023-03-01T20:22:50;98879.75;;;4.10;55.35
77706;BME280;66874;45.274;5.880;2023-03-01T20:25:15;98888.41;;;4.12;55.03
77706;BME280;66874;45.274;5.880;2023-03-01T20:27:41;98884.09;;;4.12;55.36
77706;BME280;66874;45.274;5.880;2023-03-01T20:30:12;98890.97;;;4.09;55.32
77706;BME280;66874;45.274;5.880;2023-03-01T20:32:38;98889.19;;;4.03;55.41
77706;BME280;66874;45.274;5.880;2023-03-01T20:35:03;98897.00;;;4.05;55.40
77706;BME280;66874;45.274;5.880;2023-03-01T20:37:30;98902.19;;;4.08;55.35
77706;BME280;66874;45.274;5.880;2023-03-01T20:39:55;98903.94;;;4.12;55.38
77706;BME280;66874;45.274;5.880;2023-03-01T20:42:20;98899.59;;;4.09;55.58
77706;BME280;66874;45.274;5.880;2023-03-01T20:44:46;98898.69;;;4.00;55.73
77706;BME280;66874;45.274;5.880;2023-03-01T20:47:13;98906.41;;;3.90;55.92